createdAt,value
2019-03-24T00:02:16.965Z,8.72
2019-03-24T00:06:22.653Z,8.71
2019-03-24T00:10:28.427Z,8.69
2019-03-24T00:14:34.093Z,8.62
2019-03-24T00:18:39.795Z,8.58
2019-03-24T00:22:45.556Z,8.52
2019-03-24T00:26:51.343Z,8.49
2019-03-24T00:30:57.129Z,8.54
2019-03-24T00:35:02.795Z,8.44
2019-03-24T00:39:08.840Z,8.44
2019-03-24T00:43:14.553Z,8.36
2019-03-24T00:47:20.433Z,8.24
2019-03-24T00:51:36.820Z,8.22
2019-03-24T00:55:42.618Z,8.16
2019-03-24T00:59:50.054Z,8.15
2019-03-24T01:03:55.815Z,8.12
2019-03-24T01:08:22.883Z,8.12
2019-03-24T01:12:28.525Z,8.03
2019-03-24T01:16:37.458Z,8.20
2019-03-24T01:20:43.692Z,8.14
2019-03-24T01:24:49.542Z,7.95
2019-03-24T01:28:55.455Z,7.85
2019-03-24T01:33:23.586Z,7.89
2019-03-24T01:37:29.871Z,7.90
2019-03-24T01:41:38.374Z,8.02
2019-03-24T01:45:44.228Z,7.79
2019-03-24T01:49:52.077Z,7.72
2019-03-24T01:53:59.430Z,7.80
2019-03-24T01:58:25.467Z,7.70
2019-03-24T02:02:31.187Z,7.70
2019-03-24T02:06:38.662Z,7.73
2019-03-24T02:10:50.311Z,7.75
2019-03-24T02:14:56.126Z,7.73
2019-03-24T02:19:21.726Z,7.64
2019-03-24T02:23:38.724Z,7.54
2019-03-24T02:27:44.510Z,7.55
2019-03-24T02:32:09.092Z,7.54
2019-03-24T02:40:53.788Z,7.47
2019-03-24T02:44:59.532Z,7.37
2019-03-24T02:49:09.301Z,7.30
2019-03-24T02:53:15.005Z,7.41
2019-03-24T02:57:22.403Z,7.28
2019-03-24T03:01:28.161Z,7.24
2019-03-24T03:05:33.902Z,7.24
2019-03-24T03:09:39.731Z,7.19
2019-03-24T03:13:45.477Z,7.12
2019-03-24T03:17:51.212Z,7.08
2019-03-24T03:22:08.017Z,7.07
2019-03-24T03:26:14.799Z,6.98
2019-03-24T03:30:20.517Z,6.86
2019-03-24T03:34:26.157Z,6.89
2019-03-24T03:38:31.843Z,6.93
2019-03-24T03:42:37.801Z,6.84
2019-03-24T03:46:52.628Z,6.74
2019-03-24T03:51:10.010Z,6.85
2019-03-24T03:55:15.677Z,6.92
2019-03-24T03:59:21.333Z,6.90
2019-03-24T04:03:26.966Z,6.81
2019-03-24T04:07:33.120Z,6.71
2019-03-24T04:11:38.890Z,6.79
2019-03-24T04:15:44.659Z,6.59
2019-03-24T04:19:52.056Z,6.63
2019-03-24T04:24:08.388Z,6.62
2019-03-24T04:28:14.128Z,6.49
2019-03-24T04:32:19.893Z,6.55
2019-03-24T04:36:25.499Z,6.54
2019-03-24T04:40:50.356Z,6.45
2019-03-24T04:44:58.446Z,6.44
2019-03-24T04:49:04.134Z,6.41
2019-03-24T04:53:09.805Z,6.40
2019-03-24T04:57:15.540Z,6.43
2019-03-24T05:01:21.333Z,6.50
2019-03-24T05:05:27.025Z,6.35
2019-03-24T05:14:03.242Z,6.38
2019-03-24T05:18:08.976Z,6.46
2019-03-24T05:22:14.743Z,6.45
2019-03-24T05:26:20.518Z,6.43
2019-03-24T05:30:26.171Z,6.39
2019-03-24T05:34:32.219Z,6.43
2019-03-24T05:38:38.786Z,6.34
2019-03-24T05:42:56.136Z,6.42
2019-03-24T05:47:01.972Z,6.52
2019-03-24T05:51:07.666Z,6.36
2019-03-24T05:55:13.331Z,6.19
2019-03-24T05:59:18.994Z,6.23
2019-03-24T06:03:43.496Z,6.29
2019-03-24T06:07:49.175Z,6.32
2019-03-24T06:12:13.787Z,6.26
2019-03-24T06:16:19.903Z,6.24
2019-03-24T06:20:44.831Z,6.24
2019-03-24T06:24:50.764Z,6.24
2019-03-24T06:28:56.448Z,6.20
2019-03-24T06:33:02.078Z,6.33
2019-03-24T06:37:07.737Z,6.18
2019-03-24T06:41:13.416Z,6.21
2019-03-24T06:45:27.939Z,6.38
2019-03-24T06:49:31.837Z,6.49
2019-03-24T06:53:49.065Z,6.19
2019-03-24T06:58:05.771Z,6.46
2019-03-24T07:02:22.136Z,6.34
2019-03-24T07:06:27.885Z,6.48
2019-03-24T07:10:33.609Z,6.41
2019-03-24T07:14:39.222Z,6.49
2019-03-24T07:18:44.891Z,6.52
2019-03-24T07:23:01.549Z,6.62
2019-03-24T07:27:18.314Z,6.63
2019-03-24T07:31:24.088Z,6.48
2019-03-24T07:35:48.624Z,6.70
2019-03-24T07:39:54.305Z,6.62
2019-03-24T07:48:19.282Z,6.72
2019-03-24T07:52:28.401Z,6.78
2019-03-24T07:56:34.343Z,7.41
2019-03-24T08:01:00.500Z,7.39
2019-03-24T08:05:06.621Z,7.72
2019-03-24T08:09:12.383Z,7.37
2019-03-24T08:13:36.865Z,8.09
2019-03-24T08:17:42.679Z,8.64
2019-03-24T08:21:48.705Z,8.64
2019-03-24T08:25:54.410Z,8.92
2019-03-24T08:30:00.470Z,8.98
2019-03-24T08:34:06.255Z,8.37
2019-03-24T08:38:12.059Z,8.43
2019-03-24T08:42:17.812Z,8.78
2019-03-24T08:46:23.630Z,8.53
2019-03-24T08:50:29.584Z,8.50
2019-03-24T08:54:35.304Z,8.50
2019-03-24T08:58:41.114Z,8.37
2019-03-24T09:02:46.849Z,8.96
2019-03-24T09:06:52.505Z,8.85
2019-03-24T09:10:58.204Z,9.66
2019-03-24T09:15:03.955Z,9.40
2019-03-24T09:19:12.098Z,9.79
2019-03-24T09:23:17.828Z,9.47
2019-03-24T09:27:23.552Z,9.93
2019-03-24T09:31:29.255Z,9.15
2019-03-24T09:35:35.037Z,10.03
2019-03-24T09:39:40.743Z,9.68
2019-03-24T09:43:46.440Z,9.80
2019-03-24T09:47:52.404Z,9.33
2019-03-24T09:51:58.151Z,10.23
2019-03-24T09:56:04.287Z,10.63
2019-03-24T10:00:10.270Z,10.70
2019-03-24T10:04:34.697Z,10.94
2019-03-24T10:08:47.021Z,11.54
2019-03-24T10:12:57.260Z,11.09
2019-03-24T10:17:03.066Z,11.03
2019-03-24T10:21:08.870Z,11.11
2019-03-24T10:25:14.659Z,11.32
2019-03-24T10:29:20.362Z,11.76
2019-03-24T10:33:26.123Z,11.68
2019-03-24T10:37:31.839Z,12.19
2019-03-24T10:46:03.874Z,12.30
2019-03-24T10:50:30.373Z,11.07
2019-03-24T10:54:36.092Z,12.74
2019-03-24T10:58:41.857Z,11.93
2019-03-24T11:02:58.446Z,12.91
2019-03-24T11:07:04.179Z,12.46
2019-03-24T11:11:09.828Z,12.27
2019-03-24T11:15:15.640Z,11.75
2019-03-24T11:19:21.365Z,12.08
2019-03-24T11:23:27.154Z,13.24
2019-03-24T11:27:32.866Z,12.10
2019-03-24T11:31:38.569Z,12.05
2019-03-24T11:40:33.257Z,12.56
2019-03-24T11:44:44.911Z,12.27
2019-03-24T11:48:51.175Z,12.25
2019-03-24T11:53:31.824Z,12.18
2019-03-24T12:21:08.401Z,12.66
2019-03-24T12:25:14.585Z,13.56
2019-03-24T12:29:20.333Z,13.10
2019-03-24T12:37:44.685Z,14.77
2019-03-24T12:46:14.978Z,12.92
2019-03-24T12:50:30.840Z,12.49
2019-03-24T12:59:04.882Z,12.50
2019-03-24T13:03:10.615Z,12.73
2019-03-24T13:07:16.267Z,12.81
2019-03-24T13:11:21.912Z,13.58
2019-03-24T13:15:27.962Z,12.63
2019-03-24T13:19:36.015Z,11.69
2019-03-24T13:23:46.848Z,12.68
2019-03-24T13:27:52.506Z,12.20
2019-03-24T13:31:58.475Z,11.91
2019-03-24T13:36:23.110Z,12.58
2019-03-24T13:44:46.086Z,13.67
2019-03-24T13:48:51.735Z,12.86
2019-03-24T13:52:58.257Z,14.16
2019-03-24T13:57:10.381Z,14.98
2019-03-24T14:01:16.584Z,14.07
2019-03-24T14:05:22.271Z,14.08
2019-03-24T14:09:27.908Z,15.30
2019-03-24T14:13:33.635Z,13.26
2019-03-24T14:17:39.337Z,14.01
2019-03-24T14:21:48.843Z,13.24
2019-03-24T14:26:01.798Z,15.19
2019-03-24T14:30:29.882Z,15.16
2019-03-24T14:34:35.575Z,13.65
2019-03-24T14:38:44.245Z,15.04
2019-03-24T14:42:49.911Z,18.00
2019-03-24T14:46:55.664Z,17.89
2019-03-24T14:51:01.450Z,16.14
2019-03-24T14:55:07.417Z,14.48
2019-03-24T14:59:13.157Z,17.29
2019-03-24T15:07:36.432Z,16.56
2019-03-24T15:11:42.177Z,15.83
2019-03-24T15:15:47.883Z,17.34
2019-03-24T15:19:53.640Z,15.69
2019-03-24T15:23:59.620Z,16.08
2019-03-24T15:28:05.460Z,17.67
2019-03-24T15:32:11.213Z,14.76
2019-03-24T15:36:16.880Z,15.21
2019-03-24T15:40:22.592Z,17.59
2019-03-24T15:44:48.237Z,15.48
2019-03-24T15:48:54.266Z,17.29
2019-03-24T15:52:59.921Z,18.97
2019-03-24T15:57:05.726Z,17.74
2019-03-24T16:01:11.486Z,15.27
2019-03-24T16:05:17.352Z,16.34
2019-03-24T16:09:25.419Z,15.67
2019-03-24T16:13:31.155Z,15.77
2019-03-24T16:17:36.840Z,16.97
2019-03-24T16:21:42.512Z,14.09
2019-03-24T16:25:48.436Z,15.08
2019-03-24T16:29:54.223Z,16.66
2019-03-24T16:38:16.811Z,15.14
2019-03-24T16:42:22.542Z,16.44
2019-03-24T16:46:28.203Z,16.07
2019-03-24T16:50:34.048Z,14.41
2019-03-24T16:58:57.159Z,14.91
2019-03-24T17:03:02.960Z,13.68
2019-03-24T17:07:10.983Z,13.41
2019-03-24T17:11:17.075Z,12.92
2019-03-24T17:15:22.827Z,12.51
2019-03-24T17:19:28.657Z,12.01
2019-03-24T17:23:36.202Z,11.95
2019-03-24T17:27:44.344Z,12.02
2019-03-24T17:31:50.082Z,11.25
2019-03-24T17:35:55.868Z,10.76
2019-03-24T17:40:01.634Z,10.77
2019-03-24T17:44:12.843Z,10.90
2019-03-24T17:48:18.733Z,10.13
2019-03-24T17:52:24.959Z,9.88
2019-03-24T17:56:30.618Z,9.93
2019-03-24T18:00:56.661Z,9.75
2019-03-24T18:05:02.464Z,9.58
2019-03-24T18:09:10.127Z,9.39
2019-03-24T18:13:15.914Z,9.17
2019-03-24T18:17:21.781Z,9.28
2019-03-24T18:21:27.563Z,9.28
2019-03-24T18:25:33.323Z,8.94
2019-03-24T18:29:39.064Z,8.94
2019-03-24T18:33:44.896Z,8.88
2019-03-24T18:37:50.708Z,8.93
2019-03-24T18:41:56.524Z,8.62
2019-03-24T18:46:06.649Z,8.58
2019-03-24T18:50:34.999Z,8.80
2019-03-24T18:54:42.949Z,8.35
2019-03-24T18:58:48.676Z,8.11
2019-03-24T19:02:54.432Z,8.11
2019-03-24T19:07:18.991Z,7.90
2019-03-24T19:11:24.880Z,7.90
2019-03-24T19:19:47.837Z,7.64
2019-03-24T19:23:55.842Z,7.76
2019-03-24T19:28:06.793Z,7.86
2019-03-24T19:32:31.430Z,7.77
2019-03-24T19:36:37.461Z,7.72
2019-03-24T19:40:43.273Z,7.33
2019-03-24T19:44:49.081Z,7.27
2019-03-24T19:48:54.781Z,7.41
2019-03-24T19:53:00.583Z,7.18
2019-03-24T19:57:08.003Z,7.19
2019-03-24T20:01:13.806Z,7.11
2019-03-24T20:05:19.530Z,7.10
2019-03-24T20:09:25.428Z,6.85
2019-03-24T20:13:31.227Z,6.76
2019-03-24T20:17:36.888Z,6.83
2019-03-24T20:21:42.687Z,6.80
2019-03-24T20:25:48.442Z,6.57
2019-03-24T20:29:54.143Z,6.37
2019-03-24T20:33:59.912Z,6.20
2019-03-24T20:38:05.778Z,6.41
2019-03-24T20:42:22.688Z,6.53
2019-03-24T20:46:28.750Z,6.17
2019-03-24T20:50:34.525Z,6.26
2019-03-24T20:54:40.416Z,6.07
2019-03-24T20:58:46.135Z,6.07
2019-03-24T21:02:51.899Z,5.95
2019-03-24T21:06:57.565Z,5.84
2019-03-24T21:15:46.806Z,5.75
2019-03-24T21:19:52.619Z,5.80
2019-03-24T21:23:58.351Z,5.66
2019-03-24T21:28:04.131Z,5.51
2019-03-24T21:32:10.079Z,5.52
2019-03-24T21:36:17.719Z,5.42
2019-03-24T21:44:43.326Z,5.77
2019-03-24T21:48:50.841Z,5.56
2019-03-24T21:52:56.822Z,5.62
2019-03-24T22:06:13.480Z,5.28
2019-03-24T22:10:19.322Z,5.08
2019-03-24T22:14:25.105Z,4.87
2019-03-24T22:18:30.898Z,4.96
2019-03-24T22:22:36.632Z,4.90
2019-03-24T22:26:42.395Z,4.89
2019-03-24T22:30:48.249Z,4.98
2019-03-24T22:34:54.022Z,4.93
2019-03-24T22:39:01.401Z,4.95
2019-03-24T22:43:20.082Z,4.97
2019-03-24T22:47:25.783Z,4.97
2019-03-24T22:51:31.512Z,4.84
2019-03-24T22:55:37.203Z,4.81
2019-03-24T22:59:45.560Z,4.69
2019-03-24T23:03:51.277Z,4.69
2019-03-24T23:07:57.262Z,4.63
2019-03-24T23:12:03.246Z,4.61
2019-03-24T23:16:08.961Z,4.51
2019-03-24T23:20:14.787Z,4.39
2019-03-24T23:24:20.537Z,4.27
2019-03-24T23:28:26.190Z,4.30
2019-03-24T23:32:32.115Z,4.18
2019-03-24T23:36:37.650Z,4.24
2019-03-24T23:40:43.672Z,4.23
2019-03-24T23:44:50.136Z,4.19
2019-03-24T23:48:55.782Z,4.12
2019-03-24T23:53:01.497Z,4.10
2019-03-24T23:57:07.253Z,4.11
